Al Rawdah — V7VM8 — position and weather

sailwx.info

Track history (hours):
 
Tides and Currents Weather Stations Pressure Air Temp Water Temp Dewpoint Dewpoint Depression Visibility Wind Speed Wind Dir Waves Ship Positions

Al Rawdah

Last reported at 2015-May-06 07:33 UTC. Time now 2015-May-06 22:35 UTC.
Position N 31°56' W 080°24'.

Length 307 m; draft 11.9 m.

Type: Ship (hazmat cat A). MMSI: 538004160.

Date/timePositionNaut miles runAvg speedWind from/ knotsBaromVisibWave heightAir tempDewpointWater temp
2015-May-06 07:33N 31°56' W 080°24'1615.5
2015-May-06 06:33N 31°57' W 080°43'1211.8
2015-May-06 05:34N 32°02' W 080°55'8 8.0
2015-May-06 04:33N 32°05' W 081°04'5 4.7
2015-May-06 03:33N 32°08' W 081°08'0 0.0
2015-May-06 02:33N 32°08' W 081°08'0 0.0
2015-May-06 01:33N 32°08' W 081°08'0 0.0
2015-May-06 00:34N 32°08' W 081°08'0 0.0
2015-May-05 23:33N 32°08' W 081°08'0 0.0
2015-May-05 22:33N 32°08' W 081°08'0 0.0
2015-May-05 21:33N 32°08' W 081°08'0 0.0
2015-May-05 20:33N 32°08' W 081°08'0 0.0
2015-May-05 19:33N 32°08' W 081°08'0 0.0
2015-May-05 18:33N 32°08' W 081°08'0 0.0
2015-May-05 17:34N 32°08' W 081°08'0 0.0
2015-May-05 16:34N 32°08' W 081°08'0 0.0
2015-May-05 15:34N 32°08' W 081°08'0 0.0
2015-May-05 14:33N 32°08' W 081°08'0 0.0
2015-May-05 13:33N 32°08' W 081°08'0 0.0
2015-May-05 12:34N 32°08' W 081°08'0 0.0
2015-May-05 11:34N 32°08' W 081°08'0 0.0
2015-May-05 10:33N 32°08' W 081°08'0 0.0
2015-May-05 09:34N 32°08' W 081°08'0 0.0
2015-May-05 08:34N 32°08' W 081°08'0 0.0
2015-May-05 07:34N 32°08' W 081°08'0 0.0
2015-May-05 06:33N 32°08' W 081°08'0 0.0
2015-May-05 05:34N 32°08' W 081°08'0 0.0
2015-May-05 04:33N 32°08' W 081°08'0 0.0
2015-May-05 03:34N 32°08' W 081°08'0 0.0
2015-May-05 02:34N 32°08' W 081°08'0 0.0
2015-May-05 01:34N 32°08' W 081°08'5 4.8
2015-May-05 00:33N 32°05' W 081°04'1111.1
2015-May-04 23:34N 32°02' W 080°51'1111.1
2015-May-04 22:34N 31°57' W 080°39'1212.3
2015-May-04 21:33N 31°58' W 080°25'1212.3
2015-May-04 20:34N 32°00' W 080°11'24817.1
2015-May-04 06:06N 34°17' W 076°04'1119.6
2015-May-04 05:33N 34°25' W 075°55'8816.6
2015-May-04 00:14N 35°40' W 074°60'1418.2
2015-May-03 23:28N 35°54' W 074°60'88 5.9
2015-May-03 08:30N 36°54' W 076°20'155 6.7
2015-May-02 09:31N 38°41' W 073°57'2217.8
2015-May-02 08:18N 39°02' W 073°55'1317.6
2015-May-02 07:33N 39°15' W 073°54'1817.9
2015-May-02 06:33N 39°33' W 073°53'1817.9
2015-May-02 05:32N 39°52' W 073°51'2318.1
2015-May-02 04:17N 40°14' W 073°49'1216.0
2015-May-02 03:33N 40°26' W 073°49'1414.2
2015-May-02 02:33N 40°36' W 074°03'5 4.5
2015-May-02 01:31N 40°40' W 074°05'0 0.0
2015-May-02 00:31N 40°40' W 074°05'0 0.0
2015-May-01 23:31N 40°40' W 074°05'0 0.0
2015-May-01 22:31N 40°40' W 074°05'0 0.0
2015-May-01 21:28N 40°40' W 074°05'0 0.0
2015-May-01 20:31N 40°40' W 074°05'0 0.0
2015-May-01 19:28N 40°40' W 074°05'0 0.0
2015-May-01 18:28N 40°40' W 074°05'0 0.0
2015-May-01 17:31N 40°40' W 074°05'0 0.0
2015-May-01 16:31N 40°40' W 074°05'0 0.0
2015-May-01 15:31N 40°40' W 074°05'0 0.0
2015-May-01 14:31N 40°40' W 074°05'0 0.0
2015-May-01 13:31N 40°40' W 074°05'0 0.0
2015-May-01 12:28N 40°40' W 074°05'0 0.0
2015-May-01 11:28N 40°40' W 074°05'0 0.0
2015-May-01 10:31N 40°40' W 074°05'0 0.0
2015-May-01 09:31N 40°40' W 074°05'0 0.0
2015-May-01 08:31N 40°40' W 074°05'0 0.0
2015-May-01 07:31N 40°40' W 074°05'0 0.0
2015-May-01 06:31N 40°40' W 074°05'0 0.0
2015-May-01 05:31N 40°40' W 074°05'0 0.0
2015-May-01 04:31N 40°40' W 074°05'0 0.0
2015-May-01 03:25N 40°40' W 074°05'0 0.0
2015-May-01 02:31N 40°40' W 074°05'0 0.0
2015-May-01 01:31N 40°40' W 074°05'0 0.0
2015-May-01 00:28N 40°40' W 074°05'0 0.0
2015-Apr-30 23:31N 40°40' W 074°05'0 0.0
2015-Apr-30 22:31N 40°40' W 074°05'0 0.0
2015-Apr-30 21:31N 40°40' W 074°05'0 0.0
2015-Apr-30 20:31N 40°40' W 074°05'0 0.0
2015-Apr-30 19:28N 40°40' W 074°05'0 0.0
2015-Apr-30 18:31N 40°40' W 074°05'0 0.0
2015-Apr-30 17:28N 40°40' W 074°05'0 0.0
2015-Apr-30 16:31N 40°40' W 074°05'0 0.0
2015-Apr-30 15:31N 40°40' W 074°05'0 0.0
2015-Apr-30 14:31N 40°40' W 074°05'0 0.0
2015-Apr-30 13:31N 40°40' W 074°05'0 0.0
2015-Apr-30 12:31N 40°40' W 074°05'0 0.0
2015-Apr-30 11:31N 40°40' W 074°05'0 0.0
2015-Apr-30 10:31N 40°40' W 074°05'0 0.0
2015-Apr-30 09:31N 40°40' W 074°05'0 0.0
2015-Apr-30 08:31N 40°40' W 074°05'0 0.0
2015-Apr-30 07:31N 40°40' W 074°05'0 0.0
2015-Apr-30 06:31N 40°40' W 074°05'0 0.1
2015-Apr-30 05:34N 40°40' W 074°05'6 5.7
2015-Apr-30 04:34N 40°35' W 074°02'9 8.6
2015-Apr-30 03:34N 40°29' W 073°54'7 6.9
2015-Apr-30 02:33N 40°28' W 073°45'4 4.1
2015-Apr-30 01:28N 40°29' W 073°39'0 0.3
2015-Apr-30 00:31N 40°30' W 073°39'0 0.0
2015-Apr-29 23:28N 40°30' W 073°39'0 0.0
2015-Apr-29 17:04N 40°30' W 073°39'0 0.0
2015-Apr-29 16:25N 40°30' W 073°39'0 0.0
2015-Apr-29 15:28N 40°30' W 073°39'0 0.1
2015-Apr-29 14:16N 40°29' W 073°39'4 5.7
2015-Apr-29 13:33N 40°25' W 073°38'3711.3
2015-Apr-29 10:14N 40°01' W 073°00'812.1
2015-Apr-29 09:32N 39°56' W 072°51'5112.2
2015-Apr-29 05:22N 39°27' W 071°58'1311.5
2015-Apr-29 04:15N 39°19' W 071°45'810.6
2015-Apr-29 03:31N 39°15' W 071°36'9 9.0
2015-Apr-29 02:29N 39°10' W 071°26'10 9.1
2015-Apr-29 01:25N 39°04' W 071°16'9 9.6
2015-Apr-29 00:28N 38°59' W 071°06'  
Track history (hours):
 
Tides and Currents Weather Stations Pressure Air Temp Water Temp Dewpoint Dewpoint Depression Visibility Wind Speed Wind Dir Waves Ship Positions

Al Rawdah

Last reported at 2015-May-06 07:33 UTC. Time now 2015-May-06 22:35 UTC.
Position N 31°56' W 080°24'.

Length 307 m; draft 11.9 m.

Type: Ship (hazmat cat A). MMSI: 538004160.

Date/timePositionNaut miles runAvg speedWind from/ knotsBaromVisibWave heightAir tempDewpointWater temp
2015-May-06 07:33N 31°56' W 080°24'1615.5
2015-May-06 06:33N 31°57' W 080°43'1211.8
2015-May-06 05:34N 32°02' W 080°55'8 8.0
2015-May-06 04:33N 32°05' W 081°04'5 4.7
2015-May-06 03:33N 32°08' W 081°08'0 0.0
2015-May-06 02:33N 32°08' W 081°08'0 0.0
2015-May-06 01:33N 32°08' W 081°08'0 0.0
2015-May-06 00:34N 32°08' W 081°08'0 0.0
2015-May-05 23:33N 32°08' W 081°08'0 0.0
2015-May-05 22:33N 32°08' W 081°08'0 0.0
2015-May-05 21:33N 32°08' W 081°08'0 0.0
2015-May-05 20:33N 32°08' W 081°08'0 0.0
2015-May-05 19:33N 32°08' W 081°08'0 0.0
2015-May-05 18:33N 32°08' W 081°08'0 0.0
2015-May-05 17:34N 32°08' W 081°08'0 0.0
2015-May-05 16:34N 32°08' W 081°08'0 0.0
2015-May-05 15:34N 32°08' W 081°08'0 0.0
2015-May-05 14:33N 32°08' W 081°08'0 0.0
2015-May-05 13:33N 32°08' W 081°08'0 0.0
2015-May-05 12:34N 32°08' W 081°08'0 0.0
2015-May-05 11:34N 32°08' W 081°08'0 0.0
2015-May-05 10:33N 32°08' W 081°08'0 0.0
2015-May-05 09:34N 32°08' W 081°08'0 0.0
2015-May-05 08:34N 32°08' W 081°08'0 0.0
2015-May-05 07:34N 32°08' W 081°08'0 0.0
2015-May-05 06:33N 32°08' W 081°08'0 0.0
2015-May-05 05:34N 32°08' W 081°08'0 0.0
2015-May-05 04:33N 32°08' W 081°08'0 0.0
2015-May-05 03:34N 32°08' W 081°08'0 0.0
2015-May-05 02:34N 32°08' W 081°08'0 0.0
2015-May-05 01:34N 32°08' W 081°08'5 4.8
2015-May-05 00:33N 32°05' W 081°04'1111.1
2015-May-04 23:34N 32°02' W 080°51'1111.1
2015-May-04 22:34N 31°57' W 080°39'1212.3
2015-May-04 21:33N 31°58' W 080°25'1212.3
2015-May-04 20:34N 32°00' W 080°11'24817.1
2015-May-04 06:06N 34°17' W 076°04'1119.6
2015-May-04 05:33N 34°25' W 075°55'8816.6
2015-May-04 00:14N 35°40' W 074°60'1418.2
2015-May-03 23:28N 35°54' W 074°60'88 5.9
2015-May-03 08:30N 36°54' W 076°20'155 6.7
2015-May-02 09:31N 38°41' W 073°57'2217.8
2015-May-02 08:18N 39°02' W 073°55'1317.6
2015-May-02 07:33N 39°15' W 073°54'1817.9
2015-May-02 06:33N 39°33' W 073°53'1817.9
2015-May-02 05:32N 39°52' W 073°51'2318.1
2015-May-02 04:17N 40°14' W 073°49'1216.0
2015-May-02 03:33N 40°26' W 073°49'1414.2
2015-May-02 02:33N 40°36' W 074°03'5 4.5
2015-May-02 01:31N 40°40' W 074°05'0 0.0
2015-May-02 00:31N 40°40' W 074°05'0 0.0
2015-May-01 23:31N 40°40' W 074°05'0 0.0
2015-May-01 22:31N 40°40' W 074°05'0 0.0
2015-May-01 21:28N 40°40' W 074°05'0 0.0
2015-May-01 20:31N 40°40' W 074°05'0 0.0
2015-May-01 19:28N 40°40' W 074°05'0 0.0
2015-May-01 18:28N 40°40' W 074°05'0 0.0
2015-May-01 17:31N 40°40' W 074°05'0 0.0
2015-May-01 16:31N 40°40' W 074°05'0 0.0
2015-May-01 15:31N 40°40' W 074°05'0 0.0
2015-May-01 14:31N 40°40' W 074°05'0 0.0
2015-May-01 13:31N 40°40' W 074°05'0 0.0
2015-May-01 12:28N 40°40' W 074°05'0 0.0
2015-May-01 11:28N 40°40' W 074°05'0 0.0
2015-May-01 10:31N 40°40' W 074°05'0 0.0
2015-May-01 09:31N 40°40' W 074°05'0 0.0
2015-May-01 08:31N 40°40' W 074°05'0 0.0
2015-May-01 07:31N 40°40' W 074°05'0 0.0
2015-May-01 06:31N 40°40' W 074°05'0 0.0
2015-May-01 05:31N 40°40' W 074°05'0 0.0
2015-May-01 04:31N 40°40' W 074°05'0 0.0
2015-May-01 03:25N 40°40' W 074°05'0 0.0
2015-May-01 02:31N 40°40' W 074°05'0 0.0
2015-May-01 01:31N 40°40' W 074°05'0 0.0
2015-May-01 00:28N 40°40' W 074°05'0 0.0
2015-Apr-30 23:31N 40°40' W 074°05'0 0.0
2015-Apr-30 22:31N 40°40' W 074°05'0 0.0
2015-Apr-30 21:31N 40°40' W 074°05'0 0.0
2015-Apr-30 20:31N 40°40' W 074°05'0 0.0
2015-Apr-30 19:28N 40°40' W 074°05'0 0.0
2015-Apr-30 18:31N 40°40' W 074°05'0 0.0
2015-Apr-30 17:28N 40°40' W 074°05'0 0.0
2015-Apr-30 16:31N 40°40' W 074°05'0 0.0
2015-Apr-30 15:31N 40°40' W 074°05'0 0.0
2015-Apr-30 14:31N 40°40' W 074°05'0 0.0
2015-Apr-30 13:31N 40°40' W 074°05'0 0.0
2015-Apr-30 12:31N 40°40' W 074°05'0 0.0
2015-Apr-30 11:31N 40°40' W 074°05'0 0.0
2015-Apr-30 10:31N 40°40' W 074°05'0 0.0
2015-Apr-30 09:31N 40°40' W 074°05'0 0.0
2015-Apr-30 08:31N 40°40' W 074°05'0 0.0
2015-Apr-30 07:31N 40°40' W 074°05'0 0.0
2015-Apr-30 06:31N 40°40' W 074°05'0 0.1
2015-Apr-30 05:34N 40°40' W 074°05'6 5.7
2015-Apr-30 04:34N 40°35' W 074°02'9 8.6
2015-Apr-30 03:34N 40°29' W 073°54'7 6.9
2015-Apr-30 02:33N 40°28' W 073°45'4 4.1
2015-Apr-30 01:28N 40°29' W 073°39'0 0.3
2015-Apr-30 00:31N 40°30' W 073°39'0 0.0
2015-Apr-29 23:28N 40°30' W 073°39'0 0.0
2015-Apr-29 17:04N 40°30' W 073°39'0 0.0
2015-Apr-29 16:25N 40°30' W 073°39'0 0.0
2015-Apr-29 15:28N 40°30' W 073°39'0 0.1
2015-Apr-29 14:16N 40°29' W 073°39'4 5.7
2015-Apr-29 13:33N 40°25' W 073°38'3711.3
2015-Apr-29 10:14N 40°01' W 073°00'812.1
2015-Apr-29 09:32N 39°56' W 072°51'5112.2
2015-Apr-29 05:22N 39°27' W 071°58'1311.5
2015-Apr-29 04:15N 39°19' W 071°45'810.6
2015-Apr-29 03:31N 39°15' W 071°36'9 9.0
2015-Apr-29 02:29N 39°10' W 071°26'10 9.1
2015-Apr-29 01:25N 39°04' W 071°16'9 9.6
2015-Apr-29 00:28N 38°59' W 071°06'  

Dump ship's entire track history